Terminal Aerodrome Forecast
Issued by NWS

Current Version | Previous Version | Graphics & Text | Print | Product List | Glossary On
Versions: 1 2 3 4 5 6 7 8 9 10 11 12 13 14 15 16 17 18 19 20
658
FTUS41 KPBZ 131134
TAFMGW
TAF
KMGW 131134Z 1312/1412 25012G18KT P6SM OVC050
     FM140300 23012G22KT P6SM OVC025
     FM140700 24012G18KT 2SM -SN OVC008=

USA.gov is the U.S. government's official web portal to all federal, state and local government web resources and services.